Warren, Connecticut
Current Conditions -  °F | °C
As of 9:35 PM on Wednesday 22 Oct 2014 (Local Time) from KOXC Reporting Station
Overcast Overcast  
Wind Chill: 40°   Ceiling: 1700
Heat Index: 48°   Visibility: 10mi
Dew Point: 41°   Wind: 24mph
Humidity: 76%   Direction: 20°NNE
Pressure: 29.76"   Gusts: 32mph
Location:  41.6879°N, 73.3378°W
Report Text: KOXC 230135Z 02021G28KT 10SM BKN017 OVC023 09/05 A2976 RMK AO1 P0008
Loading
Personal Weather Stations






























Interactive Weather Map
Tropical Storm Tracking
New forecast layout! Learn more

10-Day Weather Forecast

Advertisements
Track Severe Weather on mobile